Time;durP1;ratioP1;P1;durP2;ratioP2;P2;SDS_P1;SDS_P2;PMS_P1;PMS_P2;Temp;Humidity;BMP_temperature;BMP_pressure;BME280_temperature;BME280_humidity;BME280_pressure;Samples;Min_cycle;Max_cycle;Signal;HPM_P1;HPM_P2
2020/12/03 00:01:49;;;;;;;34.40;18.97;;;-1.50;99.90;;;;;;5112127;28;20892;-68
2020/12/03 00:04:16;;;;;;;32.53;19.40;;;-1.00;99.90;;;;;;5112383;28;20476;-68
2020/12/03 00:06:49;;;;;;;28.87;16.80;;;-1.50;99.90;;;;;;5111964;28;20569;-68
2020/12/03 00:09:19;;;;;;;29.60;18.37;;;-1.50;99.90;;;;;;5096003;28;20491;-68
2020/12/03 00:11:49;;;;;;;32.03;19.43;;;-1.50;99.90;;;;;;5093199;28;20460;-68
2020/12/03 00:14:17;;;;;;;29.60;17.60;;;-1.50;99.90;;;;;;5112408;28;20472;-68
2020/12/03 00:16:47;;;;;;;30.57;17.83;;;-1.60;99.90;;;;;;5116590;27;20454;-68
2020/12/03 00:19:15;;;;;;;31.40;18.90;;;-1.40;99.90;;;;;;5120371;27;20454;-68
2020/12/03 00:21:45;;;;;;;30.97;19.43;;;-1.60;99.90;;;;;;5113188;27;20455;-68
2020/12/03 00:24:14;;;;;;;31.10;17.47;;;-1.60;99.90;;;;;;5111228;28;20475;-68
2020/12/03 00:26:41;;;;;;;35.77;18.87;;;-1.60;99.90;;;;;;5108746;28;20487;-68
2020/12/03 00:29:09;;;;;;;38.90;20.60;;;-1.60;99.90;;;;;;5091439;28;20461;-68
2020/12/03 00:31:36;;;;;;;29.67;18.17;;;-1.30;99.90;;;;;;5091110;28;20461;-68
2020/12/03 00:34:06;;;;;;;31.67;19.33;;;-1.70;99.90;;;;;;5091258;28;20473;-68
2020/12/03 00:36:33;;;;;;;30.50;19.03;;;-1.60;99.90;;;;;;5091049;28;20449;-68
2020/12/03 00:39:01;;;;;;;37.63;20.83;;;-1.70;99.90;;;;;;5090958;28;20534;-68
2020/12/03 00:41:29;;;;;;;35.70;20.17;;;-1.70;99.90;;;;;;5090162;28;20940;-68
2020/12/03 00:43:56;;;;;;;33.60;19.13;;;-1.80;99.90;;;;;;5091288;28;20488;-69
2020/12/03 00:46:28;;;;;;;38.13;21.53;;;-1.70;99.90;;;;;;5091272;28;20481;-68
2020/12/03 00:48:55;;;;;;;32.00;19.00;;;-1.70;99.90;;;;;;5090865;28;20535;-68
2020/12/03 00:51:23;;;;;;;35.63;20.93;;;-1.80;99.90;;;;;;5108452;28;20463;-68
2020/12/03 00:53:51;;;;;;;35.73;20.57;;;-1.80;99.90;;;;;;5107977;28;20515;-68
2020/12/03 00:56:19;;;;;;;32.50;21.07;;;-1.80;99.90;;;;;;5108315;28;20479;-68
2020/12/03 00:58:46;;;;;;;33.30;20.13;;;-1.70;99.90;;;;;;5111326;28;20464;-68
2020/12/03 01:01:15;;;;;;;40.20;22.13;;;-1.70;99.90;;;;;;5110389;28;20461;-68
2020/12/03 01:03:42;;;;;;;35.53;19.03;;;-1.70;99.90;;;;;;5111122;28;20480;-68
2020/12/03 01:06:10;;;;;;;37.13;19.47;;;-1.70;99.90;;;;;;5110819;28;20518;-68
2020/12/03 01:08:38;;;;;;;32.67;20.23;;;-1.70;99.90;;;;;;5111053;28;20458;-68
2020/12/03 01:11:06;;;;;;;32.13;20.80;;;-1.70;99.90;;;;;;5110529;28;20452;-68
2020/12/03 01:13:33;;;;;;;36.50;19.70;;;-1.60;99.90;;;;;;5111041;28;20480;-68
2020/12/03 01:16:00;;;;;;;32.57;20.40;;;-1.70;99.90;;;;;;5110950;28;20597;-68
2020/12/03 01:18:29;;;;;;;34.83;20.33;;;-1.70;99.90;;;;;;5110991;28;20452;-68
2020/12/03 01:20:57;;;;;;;34.53;20.83;;;-1.70;99.90;;;;;;5110119;28;20456;-68
2020/12/03 01:23:24;;;;;;;32.10;19.07;;;-1.60;99.90;;;;;;5110653;28;20537;-68
2020/12/03 01:25:52;;;;;;;36.80;20.80;;;-1.70;99.90;;;;;;5110852;28;20464;-68
2020/12/03 01:28:19;;;;;;;36.10;20.10;;;-2.10;99.90;;;;;;5110993;28;21045;-68
2020/12/03 01:30:46;;;;;;;31.57;18.87;;;-1.80;99.90;;;;;;5110182;28;20457;-68
2020/12/03 01:33:14;;;;;;;32.63;18.87;;;-1.80;99.90;;;;;;5110444;28;20468;-68
2020/12/03 01:35:41;;;;;;;31.50;18.43;;;-1.80;99.90;;;;;;5110440;28;20529;-68
2020/12/03 01:38:08;;;;;;;30.27;19.00;;;-1.80;99.90;;;;;;5110389;28;20932;-68
2020/12/03 01:40:35;;;;;;;31.23;17.43;;;-1.60;99.90;;;;;;5110053;28;20467;-68
2020/12/03 01:43:03;;;;;;;25.40;17.33;;;-1.80;99.90;;;;;;5110344;28;20954;-68
2020/12/03 01:45:51;;;;;;;32.10;18.73;;;-1.80;99.90;;;;;;5110073;28;20995;-68
2020/12/03 01:48:24;;;;;;;31.73;18.33;;;-1.80;99.90;;;;;;5110311;28;20472;-68
2020/12/03 01:50:52;;;;;;;30.33;18.00;;;-1.80;99.90;;;;;;5109910;28;20505;-68
2020/12/03 01:53:21;;;;;;;32.90;19.10;;;-1.80;99.90;;;;;;5109851;28;20456;-68
2020/12/03 01:55:49;;;;;;;33.57;19.50;;;-1.90;99.90;;;;;;5109992;28;20484;-68
2020/12/03 01:58:31;;;;;;;29.87;16.93;;;-1.90;99.90;;;;;;5110197;28;20466;-68
2020/12/03 02:01:01;;;;;;;27.73;16.33;;;-2.00;99.90;;;;;;5109761;28;20456;-68
2020/12/03 02:03:28;;;;;;;27.80;17.77;;;-2.00;99.90;;;;;;5110212;28;20460;-68
2020/12/03 02:05:56;;;;;;;35.63;18.40;;;-2.00;99.90;;;;;;5130359;27;20451;-68
2020/12/03 02:08:23;;;;;;;30.03;18.63;;;-2.00;99.90;;;;;;5130097;27;20492;-68
2020/12/03 02:10:50;;;;;;;30.80;18.13;;;-2.00;99.90;;;;;;5130043;27;20443;-68
2020/12/03 02:13:19;;;;;;;35.10;19.73;;;-2.00;99.90;;;;;;5130330;27;20504;-68
2020/12/03 02:15:47;;;;;;;31.70;19.43;;;-2.00;99.90;;;;;;5130370;27;20995;-68
2020/12/03 02:18:14;;;;;;;39.33;20.60;;;-2.00;99.90;;;;;;5130396;27;20455;-68
2020/12/03 02:20:42;;;;;;;33.33;20.00;;;-1.90;99.90;;;;;;5129704;27;20451;-68
2020/12/03 02:23:12;;;;;;;38.97;22.37;;;-1.90;99.90;;;;;;5129994;27;20535;-68
2020/12/03 02:25:39;;;;;;;35.53;20.53;;;-1.90;99.90;;;;;;5130449;27;20450;-67
2020/12/03 02:28:06;;;;;;;33.80;19.90;;;-1.90;99.90;;;;;;5130129;27;20482;-68
2020/12/03 02:30:34;;;;;;;37.07;19.83;;;-1.90;99.90;;;;;;5129603;27;21012;-68
2020/12/03 02:33:01;;;;;;;29.77;19.67;;;-1.80;99.90;;;;;;5130330;27;20462;-68
2020/12/03 02:35:28;;;;;;;29.40;18.80;;;-1.80;99.90;;;;;;5129628;27;20471;-68
2020/12/03 02:37:57;;;;;;;30.20;17.33;;;-1.80;99.90;;;;;;5129958;27;20455;-68
2020/12/03 02:40:24;;;;;;;30.23;17.60;;;-1.90;99.90;;;;;;5129621;27;20459;-68
2020/12/03 02:42:51;;;;;;;29.50;18.77;;;-1.90;99.90;;;;;;5129969;27;20471;-68
2020/12/03 02:45:18;;;;;;;29.40;17.90;;;-2.20;99.90;;;;;;5130209;27;20882;-68
2020/12/03 02:47:45;;;;;;;27.97;16.90;;;-1.90;99.90;;;;;;5129731;27;20482;-68
2020/12/03 02:50:12;;;;;;;32.77;20.70;;;-1.90;99.90;;;;;;5129289;27;20462;-67
2020/12/03 02:52:40;;;;;;;30.77;18.63;;;-2.00;99.90;;;;;;5129590;27;20451;-67
2020/12/03 02:55:09;;;;;;;33.43;19.03;;;-2.00;99.90;;;;;;5129734;27;20483;-67
2020/12/03 02:57:36;;;;;;;34.30;19.47;;;-2.00;99.90;;;;;;5129688;27;20462;-67
2020/12/03 03:00:04;;;;;;;29.27;18.13;;;-2.00;99.90;;;;;;5129220;27;20447;-67
2020/12/03 03:02:32;;;;;;;29.97;18.50;;;-2.00;99.90;;;;;;5129551;27;20459;-67
2020/12/03 03:04:59;;;;;;;31.27;17.67;;;-1.90;99.90;;;;;;5129756;27;20855;-67
2020/12/03 03:07:26;;;;;;;25.37;16.27;;;-2.00;99.90;;;;;;5129530;27;20486;-67
2020/12/03 03:09:53;;;;;;;27.10;16.70;;;-2.00;99.90;;;;;;5129607;27;20460;-67
2020/12/03 03:12:21;;;;;;;34.23;18.30;;;-2.00;99.90;;;;;;5129638;27;20463;-66
2020/12/03 03:14:48;;;;;;;29.07;17.47;;;-2.00;99.90;;;;;;5129852;27;20998;-67
2020/12/03 03:17:16;;;;;;;28.23;17.60;;;-2.00;99.90;;;;;;5129470;27;20454;-67
2020/12/03 03:19:43;;;;;;;30.57;18.23;;;-1.70;99.90;;;;;;5129033;27;20451;-67
2020/12/03 03:22:10;;;;;;;28.83;18.77;;;-1.90;99.90;;;;;;5129693;28;20455;-67
2020/12/03 03:24:37;;;;;;;29.53;18.67;;;-2.00;99.90;;;;;;5129889;27;20982;-67
2020/12/03 03:27:04;;;;;;;28.77;17.30;;;-1.90;99.90;;;;;;5129778;28;20479;-67
2020/12/03 03:29:33;;;;;;;29.40;17.50;;;-2.00;99.90;;;;;;5128160;28;20459;-66
2020/12/03 03:32:00;;;;;;;31.57;16.20;;;-2.00;99.90;;;;;;5127368;28;20482;-68
2020/12/03 03:34:27;;;;;;;27.33;17.13;;;-2.00;99.90;;;;;;5129600;28;20478;-65
2020/12/03 03:36:54;;;;;;;27.47;16.17;;;-1.90;99.90;;;;;;5129330;28;21108;-65
2020/12/03 03:39:24;;;;;;;29.33;17.20;;;-1.90;99.90;;;;;;5129353;28;20454;-68
2020/12/03 03:41:53;;;;;;;28.37;16.57;;;-1.30;99.90;;;;;;5129270;28;20455;-65
2020/12/03 03:44:21;;;;;;;26.33;15.93;;;-1.90;99.90;;;;;;5129309;28;20476;-67
2020/12/03 03:46:50;;;;;;;29.93;17.27;;;-1.90;99.90;;;;;;5129214;28;20857;-67
2020/12/03 03:49:17;;;;;;;28.20;16.70;;;-2.00;99.90;;;;;;5128922;28;20939;-68
2020/12/03 03:51:45;;;;;;;30.10;17.13;;;-2.00;99.90;;;;;;5128955;28;20953;-67
2020/12/03 03:54:12;;;;;;;28.03;18.27;;;-2.00;99.90;;;;;;5129156;28;20494;-67
2020/12/03 03:56:39;;;;;;;31.50;17.17;;;-2.00;99.90;;;;;;5128857;28;20459;-67
2020/12/03 03:59:06;;;;;;;34.77;18.67;;;-2.00;99.90;;;;;;5129043;28;20455;-67
2020/12/03 04:01:33;;;;;;;31.20;18.50;;;-2.00;99.90;;;;;;5128655;28;20458;-67
2020/12/03 04:04:01;;;;;;;34.30;19.03;;;-1.90;99.90;;;;;;5128892;28;20472;-67
2020/12/03 04:06:29;;;;;;;38.47;20.47;;;-1.90;99.90;;;;;;5128900;28;20451;-67
2020/12/03 04:08:56;;;;;;;31.97;18.10;;;-1.90;99.90;;;;;;5129122;28;20451;-67
2020/12/03 04:11:23;;;;;;;30.60;17.80;;;-1.90;99.90;;;;;;5127912;28;20452;-67
2020/12/03 04:13:50;;;;;;;29.63;16.50;;;-1.90;99.90;;;;;;5128599;28;20478;-67
2020/12/03 04:16:17;;;;;;;27.40;16.67;;;-1.90;99.90;;;;;;5128952;27;20455;-67
2020/12/03 04:18:44;;;;;;;29.03;17.63;;;-1.80;99.90;;;;;;5128585;28;20455;-67
2020/12/03 04:21:16;;;;;;;27.17;17.57;;;-1.90;99.90;;;;;;5128353;28;20459;-68
2020/12/03 04:23:43;;;;;;;29.63;17.43;;;-1.90;99.90;;;;;;5128384;28;20982;-68
2020/12/03 04:26:11;;;;;;;33.63;18.80;;;-1.90;99.90;;;;;;5128920;28;20477;-67
2020/12/03 04:28:39;;;;;;;37.37;18.20;;;-1.90;99.90;;;;;;5128528;28;20482;-67
2020/12/03 04:31:06;;;;;;;30.90;18.60;;;-1.90;99.90;;;;;;5129866;27;20461;-67
2020/12/03 04:33:33;;;;;;;32.30;19.07;;;-1.90;99.90;;;;;;5132107;27;20994;-68
2020/12/03 04:36:01;;;;;;;33.00;18.60;;;-2.00;99.90;;;;;;5132402;27;20455;-67
2020/12/03 04:38:29;;;;;;;34.37;19.33;;;-2.00;99.90;;;;;;5131963;27;20478;-67
2020/12/03 04:40:56;;;;;;;29.90;18.20;;;-2.00;99.90;;;;;;5131993;27;20459;-68
2020/12/03 04:43:31;;;;;;;32.37;18.83;;;-2.00;99.90;;;;;;5132146;27;20458;-69
2020/12/03 04:46:04;;;;;;;30.70;19.33;;;-2.00;99.90;;;;;;5132228;27;20934;-68
2020/12/03 04:48:58;;;;;;;28.83;17.33;;;-2.00;99.90;;;;;;5131790;27;20479;-68
2020/12/03 04:52:02;;;;;;;31.43;18.33;;;-2.00;99.90;;;;;;5121685;27;20466;-68
2020/12/03 04:54:37;;;;;;;28.20;15.87;;;-2.00;99.90;;;;;;5132266;27;20485;-68
2020/12/03 04:57:19;;;;;;;35.33;18.73;;;-2.10;99.90;;;;;;5131890;27;20450;-68
2020/12/03 04:59:58;;;;;;;32.70;18.37;;;-2.00;99.90;;;;;;5131598;27;20451;-68
2020/12/03 05:03:02;;;;;;;30.63;19.50;;;-2.00;99.90;;;;;;5131654;27;20701;-68
2020/12/03 05:05:38;;;;;;;26.13;17.43;;;-2.00;99.90;;;;;;5131945;27;20479;-68
2020/12/03 05:08:09;;;;;;;34.03;18.57;;;-2.00;99.90;;;;;;5132032;27;20753;-68
2020/12/03 05:10:40;;;;;;;27.60;17.17;;;-2.00;99.90;;;;;;5131458;27;20478;-68
2020/12/03 05:13:19;;;;;;;33.33;18.57;;;-2.00;99.90;;;;;;5131718;27;20938;-68
2020/12/03 05:15:52;;;;;;;35.33;17.37;;;-2.00;99.90;;;;;;5131900;27;20462;-68
2020/12/03 05:18:36;;;;;;;31.87;17.33;;;-2.00;99.90;;;;;;5131537;27;20455;-68
2020/12/03 05:21:04;;;;;;;28.77;16.27;;;-2.00;99.90;;;;;;5131354;27;20451;-68
2020/12/03 05:23:33;;;;;;;25.80;15.47;;;-2.00;99.90;;;;;;5130956;27;20516;-68
2020/12/03 05:26:11;;;;;;;23.87;15.87;;;-2.00;99.90;;;;;;5131476;27;20452;-68
2020/12/03 05:28:45;;;;;;;27.13;15.63;;;-2.00;99.90;;;;;;5131091;27;20487;-68
2020/12/03 05:31:23;;;;;;;29.53;16.27;;;-2.00;99.90;;;;;;5130660;27;20459;-68
2020/12/03 05:33:51;;;;;;;28.53;17.13;;;-2.00;99.90;;;;;;5130652;27;20947;-68
2020/12/03 05:36:25;;;;;;;30.47;17.43;;;-2.00;99.90;;;;;;5131045;27;20455;-67
2020/12/03 05:38:53;;;;;;;27.17;17.03;;;-2.00;99.90;;;;;;5131065;27;20461;-68
2020/12/03 05:41:23;;;;;;;25.90;16.67;;;-2.00;99.90;;;;;;5130828;27;20964;-68
2020/12/03 05:43:50;;;;;;;29.43;17.43;;;-2.00;99.90;;;;;;5130504;27;20475;-68
2020/12/03 05:46:22;;;;;;;32.23;18.27;;;-2.00;99.90;;;;;;5131223;27;20477;-68
2020/12/03 05:49:02;;;;;;;27.40;16.07;;;-1.90;99.90;;;;;;5130442;27;20580;-68
2020/12/03 05:51:32;;;;;;;33.47;19.43;;;-2.00;99.90;;;;;;5130609;27;20512;-68
2020/12/03 05:54:02;;;;;;;30.77;17.93;;;-2.00;99.90;;;;;;5130395;27;20498;-68
2020/12/03 05:56:31;;;;;;;33.70;17.70;;;-2.00;99.90;;;;;;5130781;27;20962;-68
2020/12/03 05:59:18;;;;;;;26.33;16.17;;;-2.00;99.90;;;;;;5127362;27;20471;-68
2020/12/03 06:02:01;;;;;;;31.53;19.73;;;-2.00;99.90;;;;;;5089536;28;20953;-68
2020/12/03 06:04:37;;;;;;;28.27;18.07;;;-1.90;99.90;;;;;;5089687;28;20473;-68
2020/12/03 06:07:32;;;;;;;32.13;18.20;;;-1.10;99.90;;;;;;5089442;28;20449;-69
2020/12/03 06:10:13;;;;;;;28.77;18.43;;;-1.90;99.90;;;;;;5089227;28;20888;-68
2020/12/03 06:12:53;;;;;;;27.57;16.37;;;-1.20;99.90;;;;;;5089592;28;20472;-68
2020/12/03 06:15:38;;;;;;;29.60;16.87;;;-1.90;99.90;;;;;;5103855;28;20503;-69
2020/12/03 06:18:44;;;;;;;29.93;16.97;;;-1.90;99.90;;;;;;5107505;28;20857;-68
2020/12/03 06:21:21;;;;;;;25.47;16.27;;;-1.90;99.90;;;;;;5103277;28;20460;-68
2020/12/03 06:24:04;;;;;;;30.83;17.73;;;-2.00;99.90;;;;;;5109042;28;20850;-68
2020/12/03 06:26:57;;;;;;;29.07;17.07;;;-2.00;99.90;;;;;;5108647;28;20452;-68
2020/12/03 06:29:50;;;;;;;32.57;17.73;;;-2.00;99.90;;;;;;5102882;28;20877;-68
2020/12/03 06:32:50;;;;;;;31.10;17.07;;;-2.00;99.90;;;;;;5109438;28;20452;-68
2020/12/03 06:35:33;;;;;;;24.80;16.83;;;-2.00;99.90;;;;;;5067981;28;20473;-68
2020/12/03 06:38:18;;;;;;;25.27;15.73;;;-2.00;99.90;;;;;;5109340;28;20455;-68
2020/12/03 06:40:53;;;;;;;26.47;16.07;;;-1.90;99.90;;;;;;5107993;28;20468;-68
2020/12/03 06:43:29;;;;;;;26.13;16.30;;;-1.90;99.90;;;;;;5109377;28;20447;-68
2020/12/03 06:46:08;;;;;;;29.13;18.17;;;-1.90;99.90;;;;;;5129689;27;20455;-68
2020/12/03 06:49:02;;;;;;;28.57;16.93;;;-1.90;99.90;;;;;;5106223;27;20500;-68
2020/12/03 06:51:40;;;;;;;27.80;15.70;;;-1.80;99.90;;;;;;5106406;27;20491;-68
2020/12/03 06:54:44;;;;;;;33.47;17.10;;;-1.90;99.90;;;;;;5087247;28;21007;-68
2020/12/03 06:57:47;;;;;;;32.67;19.53;;;-1.80;99.90;;;;;;5087937;28;20452;-68
2020/12/03 07:00:47;;;;;;;28.30;16.87;;;-1.80;99.90;;;;;;5099244;28;20464;-69
2020/12/03 07:04:01;;;;;;;29.90;20.17;;;-1.70;99.90;;;;;;5075193;28;20539;-69
2020/12/03 07:07:11;;;;;;;32.07;20.30;;;-1.70;99.90;;;;;;5091100;28;20461;-68
2020/12/03 07:10:12;;;;;;;31.07;20.30;;;-1.70;99.90;;;;;;5081634;28;20449;-69
2020/12/03 07:12:56;;;;;;;29.97;17.63;;;-1.50;99.90;;;;;;5089141;28;20459;-69
2020/12/03 07:16:04;;;;;;;28.40;17.40;;;-1.50;99.90;;;;;;5088082;28;20488;-69
2020/12/03 07:19:04;;;;;;;38.80;22.87;;;-1.50;99.90;;;;;;5025972;28;20463;-69
2020/12/03 07:22:02;;;;;;;26.67;19.93;;;-1.50;99.90;;;;;;5075163;28;20476;-69
2020/12/03 07:24:32;;;;;;;29.60;17.03;;;-1.40;99.90;;;;;;5087204;28;20492;-69
2020/12/03 07:27:38;;;;;;;30.30;17.10;;;-1.40;99.90;;;;;;5089195;28;20468;-69
2020/12/03 07:30:11;;;;;;;25.27;16.57;;;-1.40;99.90;;;;;;5071691;28;20787;-66
2020/12/03 07:32:47;;;;;;;28.77;17.47;;;-1.40;99.90;;;;;;5089804;28;20457;-66
2020/12/03 07:35:30;;;;;;;29.27;18.23;;;-1.40;99.90;;;;;;5088330;28;20475;-69
2020/12/03 07:38:08;;;;;;;26.77;17.23;;;-1.20;99.90;;;;;;5088846;28;20805;-69
2020/12/03 07:40:35;;;;;;;24.37;15.27;;;-1.30;99.90;;;;;;5088444;28;21042;-69
2020/12/03 07:43:05;;;;;;;29.30;17.20;;;-1.30;99.90;;;;;;5088581;28;20453;-69
2020/12/03 07:45:37;;;;;;;27.53;17.10;;;-1.20;99.90;;;;;;5092595;28;20480;-68
2020/12/03 07:48:11;;;;;;;27.30;16.40;;;-1.20;99.90;;;;;;5109196;28;20491;-69
2020/12/03 07:50:48;;;;;;;32.97;16.63;;;-1.10;99.90;;;;;;5119771;28;20481;-69
2020/12/03 07:53:22;;;;;;;25.57;15.43;;;-1.00;99.90;;;;;;5107965;28;20452;-68
2020/12/03 07:55:49;;;;;;;28.43;16.57;;;-0.80;99.90;;;;;;5106729;28;20455;-68
2020/12/03 07:58:35;;;;;;;25.93;17.00;;;-1.10;99.90;;;;;;5105816;28;20943;-68
2020/12/03 08:01:04;;;;;;;28.97;18.37;;;-0.90;99.90;;;;;;5107517;28;20456;-68
2020/12/03 08:03:46;;;;;;;30.03;18.13;;;-0.90;99.90;;;;;;5108339;28;20472;-68
2020/12/03 08:06:23;;;;;;;26.43;16.60;;;-0.10;99.90;;;;;;5110453;28;20467;-68
2020/12/03 08:09:13;;;;;;;26.17;16.37;;;-0.80;99.90;;;;;;5112322;28;21023;-68
2020/12/03 08:11:44;;;;;;;25.77;15.63;;;-0.80;99.90;;;;;;5111675;28;20478;-68
2020/12/03 08:14:38;;;;;;;26.63;16.37;;;-0.80;99.90;;;;;;5112386;28;20476;-68
2020/12/03 08:17:27;;;;;;;23.23;14.63;;;-0.70;99.90;;;;;;5108432;28;20471;-69
2020/12/03 08:20:17;;;;;;;25.00;15.63;;;-0.70;99.90;;;;;;5099629;28;20804;-68
2020/12/03 08:22:46;;;;;;;29.70;17.33;;;-0.60;99.90;;;;;;5112127;28;20464;-68
2020/12/03 08:25:17;;;;;;;24.67;15.47;;;-0.60;99.90;;;;;;5108976;28;20541;-68
2020/12/03 08:27:50;;;;;;;32.93;18.83;;;-0.50;99.90;;;;;;5110422;28;20472;-68
2020/12/03 08:30:37;;;;;;;31.10;19.00;;;-0.40;99.90;;;;;;5111218;28;20452;-69
2020/12/03 08:33:07;;;;;;;27.10;16.80;;;-0.40;99.90;;;;;;5105238;27;20448;-69
2020/12/03 08:35:34;;;;;;;25.67;16.77;;;-0.30;99.90;;;;;;5102462;28;20494;-67
2020/12/03 08:38:03;;;;;;;27.77;16.10;;;-0.30;99.90;;;;;;5109503;27;20958;-66
2020/12/03 08:40:33;;;;;;;28.43;16.27;;;-0.30;99.90;;;;;;5093028;28;20456;-67
2020/12/03 08:43:03;;;;;;;26.73;14.37;;;-0.30;99.90;;;;;;5090534;28;20457;-66
2020/12/03 08:45:42;;;;;;;28.67;16.87;;;-0.20;99.90;;;;;;5099790;28;20469;-67
2020/12/03 08:48:14;;;;;;;29.70;17.27;;;-0.20;99.90;;;;;;5091307;28;20562;-66
2020/12/03 08:50:42;;;;;;;28.80;16.00;;;0.00;99.90;;;;;;5106030;28;20475;-67
2020/12/03 08:53:10;;;;;;;25.60;15.07;;;0.20;99.90;;;;;;5111736;28;20871;-67
2020/12/03 08:55:39;;;;;;;25.37;15.73;;;0.20;99.90;;;;;;5091982;28;20449;-67
2020/12/03 08:58:09;;;;;;;23.57;15.87;;;0.30;99.90;;;;;;5110482;28;20451;-67
2020/12/03 09:00:42;;;;;;;29.70;17.63;;;0.40;99.90;;;;;;5110640;28;20452;-67
2020/12/03 09:03:14;;;;;;;23.83;17.30;;;0.40;99.90;;;;;;5111248;28;20455;-67
2020/12/03 09:05:44;;;;;;;26.50;17.73;;;0.30;99.90;;;;;;5111295;28;20479;-67
2020/12/03 09:08:18;;;;;;;24.37;14.23;;;0.50;99.90;;;;;;5111236;28;21017;-67
2020/12/03 09:10:48;;;;;;;22.87;15.50;;;0.50;99.90;;;;;;5107373;28;21031;-67
2020/12/03 09:13:18;;;;;;;26.03;16.67;;;0.40;99.90;;;;;;5108554;28;20452;-67
2020/12/03 09:15:47;;;;;;;25.97;15.77;;;0.60;99.90;;;;;;5111521;28;20453;-67
2020/12/03 09:18:15;;;;;;;24.13;15.07;;;0.50;99.90;;;;;;5109966;28;20633;-69
2020/12/03 09:20:43;;;;;;;22.67;15.63;;;0.50;99.90;;;;;;5110763;28;20459;-67
2020/12/03 09:23:18;;;;;;;28.23;16.73;;;0.60;99.90;;;;;;5117221;27;20460;-67
2020/12/03 09:25:46;;;;;;;25.93;15.17;;;0.70;99.90;;;;;;5118840;27;20463;-67
2020/12/03 09:28:13;;;;;;;20.37;14.60;;;0.70;99.90;;;;;;5110779;28;20994;-67
2020/12/03 09:30:44;;;;;;;26.23;14.40;;;0.80;99.90;;;;;;5110373;28;20865;-67
2020/12/03 09:33:17;;;;;;;23.17;15.43;;;0.80;99.90;;;;;;5110803;28;20479;-66
2020/12/03 09:35:47;;;;;;;24.97;16.80;;;0.80;99.90;;;;;;5114772;27;20464;-67
2020/12/03 09:38:16;;;;;;;21.73;15.10;;;0.90;99.90;;;;;;5108803;27;20461;-67
2020/12/03 09:40:46;;;;;;;21.40;14.90;;;1.00;99.90;;;;;;5099315;28;20463;-67
2020/12/03 09:43:18;;;;;;;25.67;14.83;;;1.00;99.90;;;;;;5109609;28;20445;-67
2020/12/03 09:45:51;;;;;;;23.87;16.30;;;1.00;99.90;;;;;;5109068;28;20456;-67
2020/12/03 09:48:20;;;;;;;25.67;15.10;;;1.00;99.90;;;;;;5110573;28;20488;-67
2020/12/03 09:50:49;;;;;;;21.87;14.40;;;1.00;99.90;;;;;;5109149;28;20456;-67
2020/12/03 09:53:18;;;;;;;24.47;15.00;;;1.00;99.90;;;;;;5109327;27;20879;-67
2020/12/03 09:55:46;;;;;;;22.60;15.57;;;0.90;99.90;;;;;;5108880;28;20514;-67
2020/12/03 09:58:18;;;;;;;24.37;15.13;;;0.80;99.90;;;;;;5109347;27;20462;-67
2020/12/03 10:00:47;;;;;;;23.57;14.53;;;0.90;99.90;;;;;;5108833;28;20452;-67
2020/12/03 10:03:44;;;;;;;23.40;14.57;;;0.90;99.90;;;;;;5109071;28;20796;-66
2020/12/03 10:06:22;;;;;;;18.13;11.80;;;0.90;99.90;;;;;;5108559;28;20448;-66
2020/12/03 10:09:09;;;;;;;17.17;11.90;;;1.10;99.90;;;;;;5106258;28;20924;-66
2020/12/03 10:12:16;;;;;;;17.63;11.83;;;1.00;99.90;;;;;;5108619;28;20459;-66
2020/12/03 10:14:58;;;;;;;23.27;14.33;;;1.10;99.90;;;;;;5107515;28;20456;-66
2020/12/03 10:17:33;;;;;;;22.17;14.47;;;1.20;99.90;;;;;;5103552;28;20558;-66
2020/12/03 10:20:03;;;;;;;21.03;14.53;;;1.00;99.90;;;;;;5107437;28;20451;-66
2020/12/03 10:22:44;;;;;;;23.53;15.43;;;0.90;99.90;;;;;;5108043;28;20493;-66
2020/12/03 10:25:17;;;;;;;20.77;14.40;;;1.00;99.90;;;;;;5107470;27;20476;-66
2020/12/03 10:28:00;;;;;;;17.60;12.93;;;1.10;99.90;;;;;;5108199;27;20456;-65
2020/12/03 10:30:34;;;;;;;25.53;13.10;;;1.00;99.90;;;;;;5107386;28;20452;-65
2020/12/03 10:33:05;;;;;;;16.83;10.87;;;1.30;99.90;;;;;;5102966;28;20460;-65
2020/12/03 10:35:34;;;;;;;16.27;10.80;;;1.20;99.90;;;;;;5108194;28;20480;-65
2020/12/03 10:38:04;;;;;;;17.40;10.30;;;1.50;99.90;;;;;;5105298;27;20475;-65
2020/12/03 10:40:34;;;;;;;17.30;10.83;;;1.50;99.90;;;;;;5106996;28;20456;-66
2020/12/03 10:43:16;;;;;;;16.00;11.20;;;1.50;99.90;;;;;;5105985;28;21242;-66
2020/12/03 10:45:48;;;;;;;14.30;11.07;;;1.90;99.90;;;;;;5106892;28;20448;-65
2020/12/03 10:48:19;;;;;;;16.73;11.30;;;1.50;99.90;;;;;;5103774;28;21011;-66
2020/12/03 10:50:57;;;;;;;14.10;11.03;;;1.60;99.90;;;;;;5106497;28;20487;-65
2020/12/03 10:53:26;;;;;;;19.33;11.10;;;1.50;99.90;;;;;;5099436;28;20468;-65
2020/12/03 10:55:58;;;;;;;18.03;11.23;;;1.40;99.90;;;;;;5094688;28;20950;-66
2020/12/03 10:58:32;;;;;;;16.43;11.97;;;1.30;99.90;;;;;;5105503;28;20453;-66
2020/12/03 11:01:07;;;;;;;16.03;10.63;;;1.30;99.90;;;;;;5106481;27;20471;-66
2020/12/03 11:03:36;;;;;;;15.53;10.97;;;1.10;99.90;;;;;;5107731;28;20602;-66
2020/12/03 11:06:06;;;;;;;15.40;11.20;;;1.00;99.90;;;;;;5102096;28;20464;-67
2020/12/03 11:08:38;;;;;;;19.67;12.03;;;1.10;99.90;;;;;;5105298;28;20483;-66
2020/12/03 11:11:08;;;;;;;19.27;12.57;;;1.40;99.90;;;;;;5104362;28;20448;-66
2020/12/03 11:13:35;;;;;;;16.50;11.77;;;0.70;99.90;;;;;;5103919;28;20488;-66
2020/12/03 11:16:05;;;;;;;22.13;12.00;;;0.80;99.90;;;;;;5108545;28;20501;-67
2020/12/03 11:18:41;;;;;;;17.83;11.80;;;0.80;99.90;;;;;;5107766;28;20448;-66
2020/12/03 11:21:16;;;;;;;15.63;10.73;;;0.90;99.90;;;;;;5106416;28;20792;-65
2020/12/03 11:23:58;;;;;;;17.03;11.47;;;0.80;99.90;;;;;;5105176;28;20475;-66
2020/12/03 11:26:29;;;;;;;16.73;11.13;;;0.70;99.90;;;;;;5109461;28;20951;-66
2020/12/03 11:29:10;;;;;;;13.57;9.93;;;0.80;99.90;;;;;;5104494;28;20488;-66
2020/12/03 11:31:37;;;;;;;20.40;11.73;;;0.80;99.90;;;;;;5103099;28;20797;-66
2020/12/03 11:34:05;;;;;;;14.23;10.07;;;0.90;99.90;;;;;;5106444;28;20534;-66
2020/12/03 11:36:35;;;;;;;17.90;12.23;;;1.00;99.90;;;;;;5106280;28;20452;-65
2020/12/03 11:39:04;;;;;;;15.37;10.40;;;1.20;99.90;;;;;;5106658;28;20441;-66
2020/12/03 11:41:41;;;;;;;16.20;10.07;;;1.10;99.90;;;;;;5110618;28;20444;-66
2020/12/03 11:49:40;;;;;;;17.17;11.53;;;1.20;99.90;;;;;;5112565;28;20476;-66
2020/12/03 11:52:13;;;;;;;15.13;11.90;;;1.20;99.90;;;;;;5111992;28;20499;-66
2020/12/03 11:54:41;;;;;;;20.53;12.67;;;1.20;99.90;;;;;;5112119;28;20860;-66
2020/12/03 11:57:09;;;;;;;14.70;11.00;;;1.30;99.90;;;;;;5112111;28;20458;-66
2020/12/03 11:59:37;;;;;;;15.60;11.97;;;1.20;99.90;;;;;;5112700;28;20451;-66
2020/12/03 12:02:07;;;;;;;18.43;12.37;;;1.20;99.90;;;;;;5107076;28;20476;-66
2020/12/03 12:04:52;;;;;;;21.77;12.60;;;1.20;99.90;;;;;;5092107;28;21015;-66
2020/12/03 12:07:34;;;;;;;21.93;13.60;;;1.30;99.90;;;;;;5091800;28;20464;-66
2020/12/03 12:10:13;;;;;;;16.40;13.33;;;1.40;99.90;;;;;;5091680;28;20487;-67
2020/12/03 12:12:42;;;;;;;20.07;14.40;;;1.50;99.90;;;;;;5096636;28;20891;-66
2020/12/03 12:15:09;;;;;;;15.67;12.13;;;1.70;99.90;;;;;;5104956;28;20591;-66
2020/12/03 12:17:37;;;;;;;17.83;12.23;;;1.70;99.90;;;;;;5102830;28;20842;-66
2020/12/03 12:20:07;;;;;;;18.03;12.70;;;1.70;99.90;;;;;;5113793;27;20858;-66
2020/12/03 12:22:36;;;;;;;16.47;11.97;;;1.60;99.90;;;;;;5111596;28;20597;-66
2020/12/03 12:25:03;;;;;;;15.23;11.50;;;1.40;99.90;;;;;;5104605;28;20480;-66
2020/12/03 12:27:30;;;;;;;16.13;11.30;;;1.40;99.90;;;;;;5108661;28;20463;-65
2020/12/03 12:29:57;;;;;;;18.13;12.53;;;1.30;99.90;;;;;;5110592;28;20951;-66
2020/12/03 12:32:25;;;;;;;18.60;12.43;;;1.40;99.90;;;;;;5111658;28;20475;-66
2020/12/03 12:34:52;;;;;;;14.97;10.50;;;1.20;99.90;;;;;;5112215;28;20813;-66
2020/12/03 12:37:19;;;;;;;18.13;12.50;;;1.30;99.90;;;;;;5112228;28;20467;-67
2020/12/03 12:39:48;;;;;;;16.93;11.87;;;1.30;99.90;;;;;;5111456;28;20455;-66
2020/12/03 12:42:15;;;;;;;19.23;11.47;;;1.20;99.90;;;;;;5111763;28;20463;-66
2020/12/03 12:44:42;;;;;;;15.50;11.73;;;1.30;99.90;;;;;;5111527;28;20472;-67
2020/12/03 12:47:09;;;;;;;21.43;12.17;;;1.40;99.90;;;;;;5110292;28;20455;-67
2020/12/03 12:49:37;;;;;;;20.73;13.00;;;1.30;99.90;;;;;;5110695;27;20484;-65
2020/12/03 12:52:04;;;;;;;17.97;13.77;;;1.30;99.90;;;;;;5110726;28;20833;-66
2020/12/03 12:54:32;;;;;;;17.87;12.63;;;1.30;99.90;;;;;;5108603;28;20480;-67
2020/12/03 12:57:02;;;;;;;16.57;11.83;;;1.30;99.90;;;;;;5105888;28;20459;-66
2020/12/03 12:59:29;;;;;;;18.27;12.70;;;1.30;99.90;;;;;;5098435;28;20457;-66
2020/12/03 13:01:57;;;;;;;17.50;12.43;;;1.30;99.90;;;;;;5107311;28;20782;-66
2020/12/03 13:04:24;;;;;;;22.27;13.37;;;1.50;99.90;;;;;;5107750;28;20472;-66
2020/12/03 13:06:54;;;;;;;17.50;12.53;;;1.40;99.90;;;;;;5107885;28;20848;-66